Dike, Iowa
Current Conditions -  °F | °C
As of 4:54 PM on Wednesday 26 Nov 2014 (Local Time) from KALO Reporting Station
Light Snow Light Snow  
Wind Chill: 18°   Ceiling: 2500
Heat Index: 28°   Visibility: 2.5mi
Dew Point: 26°   Wind: 12mph
Humidity: 92%   Direction: 20°NNE
Pressure: 30.17"   Gusts: NA
Location:  42.46°N, 92.63°W
Report Text: KALO 262254Z 02010KT 2 1/2SM -SN BR OVC025 M02/M03 A3017 RMK AO2 SLP229 P0000 T10221033
Loading
Personal Weather Stations






























Interactive Weather Map New forecast layout! Learn more

10-Day Weather Forecast

Advertisements
Track Severe Weather on mobile